Time;durP1;ratioP1;P1;durP2;ratioP2;P2;SDS_P1;SDS_P2;PMS_P1;PMS_P2;Temp;Humidity;BMP_temperature;BMP_pressure;BME280_temperature;BME280_humidity;BME280_pressure;Samples;Min_cycle;Max_cycle;Signal;HPM_P1;HPM_P2
2021/11/28 00:00:27;;;;;;;39.15;26.08;;;1.00;99.90;;;;;;5039075;28;20197;-82
2021/11/28 00:02:56;;;;;;;40.45;24.95;;;1.00;99.90;;;;;;5036436;28;20266;-82
2021/11/28 00:05:25;;;;;;;38.22;26.23;;;1.00;99.90;;;;;;5044462;28;20200;-82
2021/11/28 00:14:15;;;;;;;37.50;22.90;;;1.00;99.90;;;;;;5009005;28;20514;-80
2021/11/28 00:16:15;;;;;;;41.83;26.17;;;1.00;99.90;;;;;;5040289;28;20434;-81
2021/11/28 00:18:43;;;;;;;35.22;22.40;;;0.90;99.90;;;;;;5042317;28;20497;-80
2021/11/28 00:21:12;;;;;;;43.85;27.50;;;0.90;99.90;;;;;;5039669;28;20204;-81
2021/11/28 00:23:40;;;;;;;39.83;25.52;;;0.90;99.90;;;;;;5031236;28;20226;-80
2021/11/28 00:26:08;;;;;;;38.15;24.73;;;0.90;99.90;;;;;;5035630;28;20207;-79
2021/11/28 00:28:37;;;;;;;44.25;26.38;;;0.90;99.90;;;;;;5035022;28;20201;-79
2021/11/28 00:31:05;;;;;;;49.00;29.90;;;0.90;99.90;;;;;;5042836;28;20238;-80
2021/11/28 00:33:33;;;;;;;42.25;25.20;;;0.80;99.90;;;;;;5044000;28;20246;-81
2021/11/28 00:36:00;;;;;;;38.05;27.77;;;0.70;99.90;;;;;;5042183;28;20209;-81
2021/11/28 00:38:29;;;;;;;40.90;26.88;;;0.70;99.90;;;;;;5043350;28;20548;-80
2021/11/28 00:40:57;;;;;;;39.47;24.05;;;0.90;99.90;;;;;;5042566;28;20204;-81
2021/11/28 00:43:25;;;;;;;39.92;27.20;;;0.90;99.90;;;;;;5043547;28;20207;-81
2021/11/28 00:45:52;;;;;;;45.25;28.27;;;0.80;99.90;;;;;;5043299;28;20200;-82
2021/11/28 00:48:23;;;;;;;49.03;26.63;;;0.90;99.90;;;;;;5042616;28;20254;-82
2021/11/28 00:51:00;;;;;;;45.97;27.95;;;0.90;99.90;;;;;;5044768;28;20294;-81
2021/11/28 00:53:28;;;;;;;37.72;25.73;;;0.80;99.90;;;;;;5044232;28;20278;-80
2021/11/28 00:55:55;;;;;;;42.97;26.95;;;0.80;99.90;;;;;;5043751;28;20200;-81
2021/11/28 00:58:23;;;;;;;49.08;27.38;;;0.70;99.90;;;;;;5043506;28;20359;-80
2021/11/28 01:00:50;;;;;;;44.40;26.63;;;0.70;99.90;;;;;;5042828;28;20198;-82
2021/11/28 01:03:18;;;;;;;46.00;27.40;;;0.90;99.90;;;;;;5043441;28;20238;-82
2021/11/28 01:05:46;;;;;;;52.15;29.13;;;1.00;99.90;;;;;;5043404;28;20194;-81
2021/11/28 01:08:16;;;;;;;40.10;25.30;;;0.90;99.90;;;;;;5042870;28;20200;-80
2021/11/28 01:10:46;;;;;;;50.60;28.13;;;1.00;99.90;;;;;;5043344;28;20196;-80
2021/11/28 01:13:16;;;;;;;42.38;27.33;;;1.20;99.90;;;;;;5043488;28;20212;-82
2021/11/28 01:15:43;;;;;;;46.65;26.65;;;1.10;99.90;;;;;;5043184;28;20259;-80
2021/11/28 01:18:11;;;;;;;43.58;27.42;;;1.10;99.90;;;;;;5043574;28;20200;-79
2021/11/28 01:20:39;;;;;;;41.58;26.55;;;1.00;99.90;;;;;;5043418;28;20204;-80
2021/11/28 01:23:06;;;;;;;41.25;27.48;;;1.00;99.90;;;;;;5043358;28;20219;-80
2021/11/28 01:25:33;;;;;;;49.97;28.63;;;0.90;99.90;;;;;;5042293;28;20211;-81
2021/11/28 01:28:00;;;;;;;49.35;27.08;;;1.00;99.90;;;;;;5043121;28;20482;-80
2021/11/28 01:30:30;;;;;;;41.55;25.45;;;0.90;99.90;;;;;;5043369;28;20196;-81
2021/11/28 01:32:57;;;;;;;48.35;28.77;;;1.10;99.90;;;;;;5042953;28;20450;-81
2021/11/28 01:35:25;;;;;;;40.08;26.13;;;1.20;99.90;;;;;;5043125;28;20200;-81
2021/11/28 01:37:53;;;;;;;38.28;24.67;;;1.00;99.90;;;;;;5041760;28;20200;-81
2021/11/28 01:40:22;;;;;;;46.70;27.13;;;1.10;99.90;;;;;;5043032;28;20311;-81
2021/11/28 01:42:52;;;;;;;33.53;24.55;;;1.10;99.90;;;;;;5041229;28;20434;-81
2021/11/28 01:45:27;;;;;;;44.88;27.60;;;1.10;99.90;;;;;;5042756;28;20210;-80
2021/11/28 01:47:57;;;;;;;40.88;26.80;;;1.10;99.90;;;;;;5041888;28;20196;-80
2021/11/28 01:50:27;;;;;;;40.55;24.42;;;1.10;99.90;;;;;;5040153;28;20401;-80
2021/11/28 01:52:55;;;;;;;43.05;24.67;;;1.10;99.90;;;;;;5041652;28;20184;-79
2021/11/28 01:55:25;;;;;;;37.42;21.80;;;1.10;99.90;;;;;;5040965;28;20230;-80
2021/11/28 01:57:54;;;;;;;38.25;23.50;;;1.20;99.90;;;;;;5041248;28;20208;-80
2021/11/28 02:00:26;;;;;;;33.80;21.55;;;1.20;99.90;;;;;;5041896;28;20203;-81
2021/11/28 02:02:56;;;;;;;71.22;22.75;;;1.20;99.90;;;;;;5041650;28;20196;-79
2021/11/28 02:05:24;;;;;;;35.08;21.25;;;1.20;99.90;;;;;;5042464;28;20429;-80
2021/11/28 02:07:52;;;;;;;36.50;21.42;;;1.20;99.90;;;;;;5041527;28;20219;-79
2021/11/28 02:10:20;;;;;;;30.70;20.80;;;1.20;99.90;;;;;;5042022;28;20271;-79
2021/11/28 02:12:47;;;;;;;28.65;19.40;;;1.10;99.90;;;;;;5040299;28;20413;-81
2021/11/28 02:15:17;;;;;;;35.63;20.20;;;1.20;99.90;;;;;;5041986;28;20231;-81
2021/11/28 02:17:52;;;;;;;32.42;20.40;;;1.30;99.90;;;;;;5040116;28;20192;-79
2021/11/28 02:20:27;;;;;;;34.00;21.42;;;1.20;99.90;;;;;;5036303;28;20527;-79
2021/11/28 02:22:55;;;;;;;32.58;18.88;;;1.10;99.90;;;;;;5034346;28;20223;-79
2021/11/28 02:25:25;;;;;;;27.05;18.10;;;1.10;99.90;;;;;;5033760;28;20494;-80
2021/11/28 02:27:56;;;;;;;43.33;21.05;;;1.30;99.90;;;;;;5042739;28;20274;-84
2021/11/28 02:30:24;;;;;;;40.55;22.65;;;1.50;99.90;;;;;;5042493;28;20216;-83
2021/11/28 02:32:52;;;;;;;35.08;19.38;;;1.60;99.90;;;;;;5042664;28;20204;-84
2021/11/28 02:35:20;;;;;;;35.60;21.10;;;1.60;99.90;;;;;;5041735;28;20227;-84
2021/11/28 02:37:48;;;;;;;30.88;20.70;;;1.50;99.90;;;;;;5029852;28;20197;-85
2021/11/28 02:40:19;;;;;;;36.53;20.33;;;1.50;99.90;;;;;;5020965;28;20245;-85
2021/11/28 02:42:49;;;;;;;27.50;19.90;;;1.60;99.90;;;;;;5042326;28;20211;-85
2021/11/28 02:45:19;;;;;;;34.85;19.98;;;1.40;99.90;;;;;;5042902;28;20204;-86
2021/11/28 02:47:49;;;;;;;34.90;18.40;;;1.20;99.90;;;;;;5040954;28;20200;-85
2021/11/28 02:50:19;;;;;;;34.00;22.13;;;1.20;99.90;;;;;;5042069;28;20309;-84
2021/11/28 02:53:00;;;;;;;40.60;23.73;;;1.10;99.90;;;;;;5041262;28;20196;-83
2021/11/28 02:55:33;;;;;;;29.67;18.00;;;1.20;99.90;;;;;;5040679;28;20231;-84
2021/11/28 02:58:01;;;;;;;30.98;19.60;;;1.40;99.90;;;;;;5039859;28;20181;-83
2021/11/28 03:00:32;;;;;;;36.03;19.45;;;1.60;99.90;;;;;;5040162;28;20370;-83
2021/11/28 03:03:00;;;;;;;33.55;17.17;;;1.50;99.90;;;;;;5041030;28;20295;-82
2021/11/28 03:05:28;;;;;;;28.42;17.67;;;1.40;99.90;;;;;;5040653;28;20196;-83
2021/11/28 03:07:57;;;;;;;33.75;20.40;;;1.20;99.90;;;;;;5040683;28;20462;-82
2021/11/28 03:10:43;;;;;;;29.52;18.38;;;1.20;99.90;;;;;;5041396;28;20206;-82
2021/11/28 03:13:20;;;;;;;29.88;20.48;;;1.20;99.90;;;;;;5042002;28;20196;-82
2021/11/28 03:15:50;;;;;;;33.30;20.08;;;1.30;99.90;;;;;;5040567;28;20441;-83
2021/11/28 03:18:24;;;;;;;29.70;18.38;;;1.20;99.90;;;;;;5042042;28;20196;-84
2021/11/28 03:20:54;;;;;;;29.70;17.90;;;1.10;99.90;;;;;;5041820;28;20210;-84
2021/11/28 03:23:24;;;;;;;37.33;19.98;;;1.10;99.90;;;;;;5040802;28;20262;-83
2021/11/28 03:26:03;;;;;;;29.95;18.40;;;1.20;99.90;;;;;;5042255;28;20203;-83
2021/11/28 03:28:31;;;;;;;32.65;18.65;;;1.20;99.90;;;;;;5041304;28;20188;-81
2021/11/28 03:30:59;;;;;;;28.15;17.80;;;1.20;99.90;;;;;;5041008;28;20525;-82
2021/11/28 03:33:26;;;;;;;31.08;19.90;;;1.40;99.90;;;;;;5040877;28;20207;-82
2021/11/28 03:35:54;;;;;;;28.88;18.63;;;1.40;99.90;;;;;;5040768;28;20216;-82
2021/11/28 03:38:22;;;;;;;31.13;20.20;;;1.50;99.90;;;;;;5041305;28;20227;-82
2021/11/28 03:40:50;;;;;;;33.25;20.65;;;1.40;99.90;;;;;;5041016;28;20196;-82
2021/11/28 03:43:19;;;;;;;29.33;18.83;;;1.50;99.90;;;;;;5037414;28;20208;-85
2021/11/28 03:45:47;;;;;;;29.98;18.90;;;1.60;99.90;;;;;;5039752;28;20218;-85
2021/11/28 03:48:15;;;;;;;28.90;17.33;;;1.80;99.90;;;;;;5041352;28;20200;-86
2021/11/28 03:50:43;;;;;;;27.55;16.50;;;1.80;99.90;;;;;;5041350;28;20200;-85
2021/11/28 03:53:11;;;;;;;35.72;19.80;;;1.50;99.90;;;;;;5041535;28;20200;-85
2021/11/28 03:55:38;;;;;;;31.75;19.38;;;1.30;99.90;;;;;;5040074;28;20410;-86
2021/11/28 03:58:07;;;;;;;34.03;20.60;;;1.10;99.90;;;;;;5040426;28;20237;-85
2021/11/28 04:00:36;;;;;;;27.92;17.52;;;1.20;99.90;;;;;;5039820;28;20207;-85
2021/11/28 04:03:05;;;;;;;27.30;20.60;;;1.10;99.90;;;;;;5040343;28;20485;-85
2021/11/28 04:05:33;;;;;;;30.45;19.95;;;1.20;99.90;;;;;;5040547;28;20215;-85
2021/11/28 04:08:00;;;;;;;29.10;19.38;;;1.20;99.90;;;;;;5041619;28;20605;-84
2021/11/28 04:10:28;;;;;;;32.42;19.63;;;1.40;99.90;;;;;;5041101;28;20208;-85
2021/11/28 04:13:00;;;;;;;32.47;19.73;;;1.40;99.90;;;;;;5041587;28;20196;-84
2021/11/28 04:15:28;;;;;;;27.35;18.48;;;1.20;99.90;;;;;;5041303;28;20246;-84
2021/11/28 04:17:55;;;;;;;41.25;20.65;;;1.00;99.90;;;;;;5042076;28;20196;-84
2021/11/28 04:20:25;;;;;;;35.60;20.35;;;1.10;99.90;;;;;;5043673;28;20197;-84
2021/11/28 04:22:53;;;;;;;31.30;19.98;;;1.30;99.90;;;;;;5042893;28;20208;-83
2021/11/28 04:25:21;;;;;;;31.17;19.70;;;1.30;99.90;;;;;;5045447;28;20242;-84
2021/11/28 04:27:48;;;;;;;40.00;21.63;;;1.10;99.90;;;;;;5043357;28;20201;-85
2021/11/28 04:30:16;;;;;;;26.77;20.20;;;0.90;99.90;;;;;;5043573;28;20246;-84
2021/11/28 04:32:43;;;;;;;33.90;20.20;;;0.70;99.90;;;;;;5044377;28;20235;-83
2021/11/28 04:35:11;;;;;;;34.15;22.42;;;0.90;99.90;;;;;;5043918;28;20552;-83
2021/11/28 04:37:39;;;;;;;40.70;23.33;;;1.10;99.90;;;;;;5044017;28;20498;-82
2021/11/28 04:40:08;;;;;;;35.30;21.00;;;1.00;99.90;;;;;;5043165;28;20203;-82
2021/11/28 04:42:36;;;;;;;35.70;22.65;;;1.00;99.90;;;;;;5044042;28;20203;-82
2021/11/28 04:45:08;;;;;;;35.75;21.92;;;1.40;99.90;;;;;;5042174;28;20208;-82
2021/11/28 04:47:36;;;;;;;33.17;21.67;;;1.60;99.90;;;;;;5042718;28;20242;-81
2021/11/28 04:50:10;;;;;;;34.58;21.13;;;1.70;99.90;;;;;;5026082;28;20485;-84
2021/11/28 04:52:38;;;;;;;37.38;21.92;;;1.50;99.90;;;;;;5043570;28;20204;-84
2021/11/28 04:55:08;;;;;;;37.83;23.05;;;1.40;99.90;;;;;;5043240;28;20224;-83
2021/11/28 04:57:36;;;;;;;39.45;23.25;;;1.40;99.90;;;;;;5044218;28;20196;-83
2021/11/28 05:00:10;;;;;;;35.75;21.60;;;1.30;99.90;;;;;;5034008;28;20201;-82
2021/11/28 05:02:39;;;;;;;29.30;20.45;;;1.20;99.90;;;;;;5023702;28;20224;-83
2021/11/28 05:05:07;;;;;;;36.03;23.90;;;1.60;99.90;;;;;;5023206;28;20377;-81
2021/11/28 05:07:35;;;;;;;41.60;20.98;;;1.80;99.90;;;;;;5023141;28;20220;-82
2021/11/28 05:10:05;;;;;;;39.78;22.98;;;1.80;99.90;;;;;;5023144;28;20259;-81
2021/11/28 05:12:33;;;;;;;30.80;20.02;;;2.00;99.90;;;;;;5022077;28;20196;-81
2021/11/28 05:15:00;;;;;;;40.03;23.63;;;2.00;99.90;;;;;;5021394;28;20230;-81
2021/11/28 05:17:27;;;;;;;39.30;23.58;;;2.10;99.90;;;;;;5022300;28;20359;-80
2021/11/28 05:19:55;;;;;;;32.08;20.90;;;2.30;99.90;;;;;;5021247;28;20391;-81
2021/11/28 05:22:23;;;;;;;35.17;22.55;;;2.30;99.90;;;;;;5021964;28;20200;-81
2021/11/28 05:24:52;;;;;;;40.40;21.20;;;2.30;99.90;;;;;;5022372;28;20200;-81
2021/11/28 05:27:20;;;;;;;31.05;20.90;;;2.00;99.90;;;;;;5023517;28;20295;-84
2021/11/28 05:29:48;;;;;;;39.63;21.27;;;1.90;99.90;;;;;;5022115;28;20317;-84
2021/11/28 05:32:16;;;;;;;42.13;22.90;;;1.60;99.90;;;;;;5022685;28;20193;-84
2021/11/28 05:34:43;;;;;;;34.88;21.58;;;1.30;99.90;;;;;;5022353;28;20530;-86
2021/11/28 05:37:11;;;;;;;32.25;20.40;;;1.30;99.90;;;;;;5022643;28;20220;-82
2021/11/28 05:39:38;;;;;;;36.83;22.23;;;1.50;99.90;;;;;;5024762;28;20200;-79
2021/11/28 05:42:06;;;;;;;38.95;22.70;;;1.60;99.90;;;;;;5040579;28;20200;-81
2021/11/28 05:44:33;;;;;;;31.67;22.60;;;1.60;99.90;;;;;;5043102;28;20238;-82
2021/11/28 05:47:01;;;;;;;40.97;23.60;;;1.60;99.90;;;;;;5041157;28;20206;-81
2021/11/28 05:49:28;;;;;;;38.65;22.90;;;1.70;99.90;;;;;;5042383;28;20200;-83
2021/11/28 05:51:56;;;;;;;34.90;24.55;;;1.70;99.90;;;;;;5039793;28;20215;-82
2021/11/28 05:54:23;;;;;;;40.25;23.95;;;1.60;99.90;;;;;;5041240;28;20271;-83
2021/11/28 05:56:51;;;;;;;29.92;22.25;;;1.50;99.90;;;;;;5040869;28;20212;-83
2021/11/28 05:59:19;;;;;;;35.45;22.55;;;1.40;99.90;;;;;;5040614;28;20192;-82
2021/11/28 06:01:46;;;;;;;40.40;22.95;;;1.10;99.90;;;;;;5039250;28;20395;-83
2021/11/28 06:04:14;;;;;;;38.30;24.60;;;0.90;99.90;;;;;;5040456;28;20412;-82
2021/11/28 06:06:41;;;;;;;43.70;24.92;;;0.80;99.90;;;;;;5030759;28;20200;-81
2021/11/28 06:09:09;;;;;;;40.65;25.02;;;0.80;99.90;;;;;;5020588;28;20239;-81
2021/11/28 06:11:36;;;;;;;51.13;29.70;;;0.90;99.90;;;;;;5022948;28;20228;-82
2021/11/28 06:14:04;;;;;;;40.17;25.35;;;0.90;99.90;;;;;;5022030;28;20208;-83
2021/11/28 06:16:32;;;;;;;47.15;28.40;;;0.60;99.90;;;;;;5024912;28;20573;-83
2021/11/28 06:18:59;;;;;;;46.97;29.80;;;0.50;99.90;;;;;;5042745;28;20192;-84
2021/11/28 06:21:27;;;;;;;48.33;29.35;;;0.50;99.90;;;;;;5039900;28;20223;-82
2021/11/28 06:23:54;;;;;;;54.10;30.92;;;0.40;99.90;;;;;;5040068;28;20490;-84
2021/11/28 06:26:21;;;;;;;45.90;29.80;;;0.30;99.90;;;;;;5038621;28;20478;-83
2021/11/28 06:28:50;;;;;;;52.08;31.90;;;0.40;99.90;;;;;;5040046;28;20212;-82
2021/11/28 06:31:19;;;;;;;46.75;28.05;;;0.30;99.90;;;;;;5037133;28;20206;-82
2021/11/28 06:33:47;;;;;;;51.53;31.15;;;0.40;99.90;;;;;;5040669;28;20207;-82
2021/11/28 06:36:15;;;;;;;47.92;30.90;;;0.50;99.90;;;;;;5040863;28;20220;-82
2021/11/28 06:38:43;;;;;;;45.25;31.20;;;0.70;99.90;;;;;;5040058;28;20338;-81
2021/11/28 06:41:11;;;;;;;44.97;29.50;;;0.70;99.90;;;;;;5038208;28;20189;-83
2021/11/28 06:43:38;;;;;;;44.53;28.73;;;0.60;99.90;;;;;;5040021;28;20204;-83
2021/11/28 06:46:06;;;;;;;47.92;29.65;;;0.80;99.90;;;;;;5039947;28;20481;-82
2021/11/28 06:48:35;;;;;;;60.13;31.63;;;0.90;99.90;;;;;;5032911;28;20201;-82
2021/11/28 06:51:02;;;;;;;42.67;31.45;;;0.90;99.90;;;;;;5041029;28;20240;-83
2021/11/28 06:53:29;;;;;;;47.55;27.27;;;1.00;99.90;;;;;;5040257;28;20382;-83
2021/11/28 06:55:57;;;;;;;43.88;29.42;;;1.30;99.90;;;;;;5040278;28;20228;-83
2021/11/28 06:58:26;;;;;;;43.70;27.83;;;1.40;99.90;;;;;;5041550;28;20197;-84
2021/11/28 07:00:53;;;;;;;40.28;28.65;;;1.10;99.90;;;;;;5040427;28;20196;-83
2021/11/28 07:03:21;;;;;;;40.38;28.52;;;1.00;99.90;;;;;;5040468;28;20242;-83
2021/11/28 07:05:49;;;;;;;44.17;28.45;;;1.30;99.90;;;;;;5040559;28;20200;-81
2021/11/28 07:08:17;;;;;;;44.03;25.90;;;1.40;99.90;;;;;;5042256;28;20219;-82
2021/11/28 07:10:45;;;;;;;48.28;28.23;;;1.50;99.90;;;;;;5041844;28;20279;-83
2021/11/28 07:13:12;;;;;;;41.50;26.55;;;1.80;99.90;;;;;;5041731;28;20200;-83
2021/11/28 07:15:40;;;;;;;41.00;25.52;;;1.80;99.90;;;;;;5040273;28;20243;-83
2021/11/28 07:18:08;;;;;;;41.83;25.80;;;1.60;99.90;;;;;;5037740;28;20200;-82
2021/11/28 07:20:35;;;;;;;33.45;25.08;;;1.40;99.90;;;;;;5033694;28;20209;-83
2021/11/28 07:23:03;;;;;;;39.47;23.88;;;1.30;99.90;;;;;;5034664;28;20224;-82
2021/11/28 07:25:31;;;;;;;43.83;27.05;;;1.20;99.90;;;;;;5035092;28;20200;-83
2021/11/28 07:28:00;;;;;;;39.42;25.30;;;1.10;99.90;;;;;;5035139;28;20288;-82
2021/11/28 07:30:29;;;;;;;37.90;23.60;;;1.00;99.90;;;;;;5022131;28;20212;-83
2021/11/28 07:32:58;;;;;;;36.70;24.75;;;1.20;99.90;;;;;;5020584;28;20204;-83
2021/11/28 07:35:26;;;;;;;46.97;27.13;;;1.30;99.90;;;;;;5021615;28;20232;-83
2021/11/28 07:37:53;;;;;;;37.72;24.45;;;1.60;99.90;;;;;;5026298;28;20195;-83
2021/11/28 07:40:21;;;;;;;40.78;25.92;;;1.90;99.90;;;;;;5037410;28;20378;-82
2021/11/28 07:42:48;;;;;;;38.65;23.63;;;1.90;99.90;;;;;;5040413;28;20200;-84
2021/11/28 07:45:16;;;;;;;37.85;25.10;;;1.70;99.90;;;;;;5039982;28;20246;-82
2021/11/28 07:47:43;;;;;;;32.47;22.52;;;1.70;99.90;;;;;;5021687;28;20209;-82
2021/11/28 07:50:15;;;;;;;38.20;22.90;;;1.90;99.90;;;;;;5020485;28;20377;-83
2021/11/28 07:52:43;;;;;;;38.25;24.30;;;2.10;99.90;;;;;;5021905;28;20205;-82
2021/11/28 07:55:10;;;;;;;36.78;23.60;;;2.10;99.90;;;;;;5034485;28;20526;-83
2021/11/28 07:57:37;;;;;;;38.92;22.92;;;2.30;99.90;;;;;;5040949;28;20200;-83
2021/11/28 08:00:07;;;;;;;42.35;23.55;;;2.40;99.90;;;;;;5043761;28;20200;-83
2021/11/28 08:02:35;;;;;;;37.42;22.98;;;2.40;99.90;;;;;;5043047;28;20196;-83
2021/11/28 08:05:04;;;;;;;40.83;24.45;;;2.50;99.90;;;;;;5043314;28;20239;-83
2021/11/28 08:07:32;;;;;;;36.83;21.50;;;2.30;99.90;;;;;;5043376;28;20200;-83
2021/11/28 08:10:00;;;;;;;41.08;25.58;;;2.10;99.90;;;;;;5044345;28;20210;-83
2021/11/28 08:12:28;;;;;;;44.25;26.13;;;2.00;99.90;;;;;;5044575;28;20206;-81
2021/11/28 08:14:55;;;;;;;57.22;29.65;;;2.10;99.90;;;;;;5043761;28;20204;-82
2021/11/28 08:17:22;;;;;;;67.38;36.63;;;2.20;99.90;;;;;;5042858;28;20206;-83
2021/11/28 08:19:50;;;;;;;42.10;26.77;;;2.50;99.90;;;;;;5042205;28;20203;-82
2021/11/28 08:22:17;;;;;;;117.63;45.67;;;2.50;99.90;;;;;;5043500;28;20242;-82
2021/11/28 08:24:45;;;;;;;121.55;47.28;;;2.20;99.90;;;;;;5043107;28;20200;-82
2021/11/28 08:27:12;;;;;;;93.15;40.53;;;2.00;99.90;;;;;;5042592;28;20196;-83
2021/11/28 08:29:41;;;;;;;85.47;40.97;;;2.00;99.90;;;;;;5041786;28;20189;-83
2021/11/28 08:32:10;;;;;;;51.55;28.75;;;1.90;99.90;;;;;;5043728;28;20216;-82
2021/11/28 08:34:39;;;;;;;44.40;24.60;;;2.10;99.90;;;;;;5039246;28;20394;-81
2021/11/28 08:37:06;;;;;;;41.17;25.45;;;2.00;99.90;;;;;;5037902;28;20232;-81
2021/11/28 08:39:34;;;;;;;44.42;26.80;;;2.00;99.90;;;;;;5036521;28;20395;-82
2021/11/28 08:42:03;;;;;;;39.47;23.95;;;2.10;99.90;;;;;;5044036;28;20199;-83
2021/11/28 08:44:31;;;;;;;42.22;24.58;;;2.30;99.90;;;;;;5042398;28;20200;-81
2021/11/28 08:46:59;;;;;;;40.70;26.95;;;2.50;99.90;;;;;;5037015;28;20422;-83
2021/11/28 08:49:27;;;;;;;45.35;25.77;;;2.80;99.90;;;;;;5040453;28;20310;-82
2021/11/28 08:51:54;;;;;;;39.13;22.65;;;3.10;99.90;;;;;;5041517;28;20521;-82
2021/11/28 08:54:22;;;;;;;42.47;22.92;;;3.50;99.90;;;;;;5056237;22;20220;-48
2021/11/28 08:56:51;;;;;;;53.28;25.38;;;3.30;99.90;;;;;;5038095;28;20224;-48
2021/11/28 08:59:20;;;;;;;48.00;25.77;;;3.40;99.90;;;;;;5041352;28;20487;-52
2021/11/28 09:01:47;;;;;;;55.08;27.50;;;3.60;99.90;;;;;;5040724;28;20209;-50
2021/11/28 09:04:15;;;;;;;36.28;22.38;;;3.60;99.90;;;;;;5041108;28;20272;-50
2021/11/28 09:06:43;;;;;;;41.38;21.70;;;3.50;99.90;;;;;;5032735;28;20519;-48
2021/11/28 09:09:10;;;;;;;45.55;24.02;;;3.50;99.90;;;;;;5041327;28;20266;-52
2021/11/28 09:11:38;;;;;;;39.10;22.30;;;3.50;99.90;;;;;;5041183;28;20200;-49
2021/11/28 09:14:05;;;;;;;37.35;23.77;;;3.50;99.90;;;;;;5041230;28;20254;-54
2021/11/28 09:16:33;;;;;;;32.90;22.23;;;3.30;99.90;;;;;;5033828;28;20635;-49
2021/11/28 09:19:08;;;;;;;35.28;22.45;;;3.20;99.90;;;;;;5031963;28;20225;-48
2021/11/28 09:21:36;;;;;;;33.10;22.30;;;3.10;99.90;;;;;;5037589;28;20442;-50
2021/11/28 09:26:49;;;;;;;35.15;22.35;;;3.00;99.90;;;;;;5031614;28;20208;-48
2021/11/28 09:29:18;;;;;;;32.95;21.80;;;3.10;99.90;;;;;;5024682;28;20230;-54
2021/11/28 09:31:46;;;;;;;37.17;21.23;;;3.30;99.90;;;;;;5021659;28;20197;-52
2021/11/28 09:34:14;;;;;;;34.83;21.25;;;3.50;99.90;;;;;;5020684;28;20317;-47
2021/11/28 09:36:41;;;;;;;37.58;21.38;;;3.40;99.90;;;;;;5021181;28;20280;-51
2021/11/28 09:39:08;;;;;;;36.28;22.58;;;3.30;99.90;;;;;;5020706;28;20219;-52
2021/11/28 09:42:00;;;;;;;32.88;20.95;;;3.10;99.90;;;;;;5020721;28;20216;-50
2021/11/28 09:44:29;;;;;;;39.10;22.13;;;2.90;99.90;;;;;;5018921;28;20202;-58
2021/11/28 09:46:58;;;;;;;41.42;21.90;;;3.10;99.90;;;;;;5033035;28;20259;-56
2021/11/28 09:49:27;;;;;;;34.22;20.60;;;3.40;99.90;;;;;;5038751;28;20232;-58
2021/11/28 09:51:56;;;;;;;41.08;24.02;;;3.60;99.90;;;;;;5041374;28;20391;-55
2021/11/28 09:54:24;;;;;;;34.10;21.42;;;3.80;99.90;;;;;;5044405;28;20213;-49
2021/11/28 09:56:54;;;;;;;42.45;25.13;;;3.70;99.90;;;;;;5035782;28;20551;-52
2021/11/28 09:59:22;;;;;;;34.42;23.00;;;3.60;99.90;;;;;;5036337;28;20487;-57
2021/11/28 10:01:50;;;;;;;28.35;20.33;;;3.80;99.90;;;;;;5043385;28;20388;-54
2021/11/28 10:04:18;;;;;;;35.38;22.33;;;4.10;99.90;;;;;;5036170;28;20267;-53
2021/11/28 10:06:47;;;;;;;32.65;21.13;;;4.30;99.90;;;;;;5003636;28;20251;-51
2021/11/28 10:09:14;;;;;;;32.15;21.73;;;4.60;99.90;;;;;;5027698;28;20230;-52
2021/11/28 10:11:42;;;;;;;33.55;22.25;;;4.60;99.90;;;;;;5028751;28;20532;-50
2021/11/28 10:14:11;;;;;;;34.08;20.73;;;4.50;99.90;;;;;;5019920;28;20264;-50
2021/11/28 10:16:39;;;;;;;31.13;21.30;;;4.80;99.90;;;;;;5029044;28;20624;-53
2021/11/28 10:19:08;;;;;;;29.27;21.45;;;5.00;99.90;;;;;;5033198;28;20223;-54
2021/11/28 10:21:36;;;;;;;35.30;23.67;;;5.20;99.90;;;;;;5038685;28;20275;-55
2021/11/28 10:24:13;;;;;;;38.60;20.60;;;4.90;99.90;;;;;;5033059;28;20230;-54
2021/11/28 10:26:59;;;;;;;35.47;21.25;;;4.70;99.90;;;;;;5039467;28;20215;-56
2021/11/28 10:29:32;;;;;;;32.08;21.85;;;4.80;99.90;;;;;;5037244;28;20322;-55
2021/11/28 10:32:01;;;;;;;49.65;31.60;;;5.00;99.90;;;;;;5034624;28;20214;-53
2021/11/28 10:34:50;;;;;;;39.83;25.42;;;4.90;99.90;;;;;;5039075;28;20206;-51
2021/11/28 10:37:33;;;;;;;32.10;22.25;;;4.90;99.90;;;;;;5022874;28;20238;-50
2021/11/28 10:40:00;;;;;;;39.58;21.92;;;4.90;99.90;;;;;;5002536;28;20266;-51
2021/11/28 10:42:32;;;;;;;31.63;18.73;;;4.90;99.90;;;;;;5018935;28;20231;-51
2021/11/28 10:45:16;;;;;;;36.80;21.65;;;5.00;99.90;;;;;;5018451;28;20217;-50
2021/11/28 10:47:46;;;;;;;37.25;23.45;;;4.80;99.90;;;;;;5035491;28;20212;-53
2021/11/28 10:50:15;;;;;;;33.15;20.27;;;4.50;99.90;;;;;;5036055;28;20238;-53
2021/11/28 10:52:45;;;;;;;39.40;23.60;;;4.30;99.90;;;;;;5037269;28;20512;-51
2021/11/28 10:55:27;;;;;;;36.33;25.65;;;4.10;99.90;;;;;;5039569;28;20266;-52
2021/11/28 10:58:08;;;;;;;31.33;24.90;;;4.30;99.90;;;;;;5038716;28;20209;-56
2021/11/28 11:01:07;;;;;;;42.70;24.58;;;4.20;99.90;;;;;;5039236;28;20587;-52
2021/11/28 11:03:48;;;;;;;40.20;26.17;;;3.90;99.90;;;;;;5035399;28;20239;-50
2021/11/28 11:06:25;;;;;;;35.40;24.05;;;3.80;99.90;;;;;;5031562;28;20271;-49
2021/11/28 11:09:17;;;;;;;37.65;23.55;;;3.60;99.90;;;;;;5036479;28;20563;-52
2021/11/28 11:11:44;;;;;;;33.28;22.88;;;3.60;99.90;;;;;;5032658;28;20206;-50
2021/11/28 11:14:11;;;;;;;33.25;23.23;;;3.70;99.90;;;;;;5023443;28;20202;-53
2021/11/28 11:16:43;;;;;;;39.72;23.50;;;3.70;99.90;;;;;;5028982;28;20249;-51
2021/11/28 11:19:31;;;;;;;44.50;25.27;;;3.90;99.90;;;;;;5036742;28;20217;-53
2021/11/28 11:22:23;;;;;;;43.33;26.77;;;3.80;99.90;;;;;;5037576;28;20209;-51
2021/11/28 11:24:51;;;;;;;43.35;26.23;;;3.60;99.90;;;;;;5032703;28;20225;-53
2021/11/28 11:27:35;;;;;;;45.60;29.90;;;3.50;99.90;;;;;;5036111;28;20208;-48
2021/11/28 11:30:13;;;;;;;50.55;32.50;;;3.60;99.90;;;;;;5037199;28;20237;-56
2021/11/28 11:32:51;;;;;;;52.30;28.52;;;3.50;99.90;;;;;;5043732;28;20239;-57
2021/11/28 11:35:31;;;;;;;44.30;31.35;;;3.40;99.90;;;;;;5040580;28;20761;-55
2021/11/28 11:38:05;;;;;;;52.25;33.35;;;3.30;99.90;;;;;;5042283;28;20208;-52
2021/11/28 11:40:32;;;;;;;48.30;32.00;;;3.20;99.90;;;;;;5034852;28;20220;-50
2021/11/28 11:43:00;;;;;;;52.70;31.77;;;3.20;99.90;;;;;;5031700;28;20204;-52
2021/11/28 11:45:33;;;;;;;53.58;32.30;;;3.00;99.90;;;;;;5032353;28;20306;-55
2021/11/28 11:48:00;;;;;;;51.13;30.33;;;3.20;99.90;;;;;;5032744;28;20226;-54
2021/11/28 11:50:32;;;;;;;46.67;33.70;;;3.10;99.90;;;;;;5035913;28;20221;-53
2021/11/28 11:53:04;;;;;;;50.75;29.00;;;3.30;99.90;;;;;;5034704;28;20213;-54
2021/11/28 11:55:38;;;;;;;38.13;28.40;;;3.40;99.90;;;;;;5027227;28;20258;-52
2021/11/28 11:58:14;;;;;;;54.72;30.83;;;3.40;99.90;;;;;;5045862;28;20204;-54
2021/11/28 12:00:58;;;;;;;48.35;30.90;;;3.50;99.90;;;;;;5045619;28;20255;-53
2021/11/28 12:03:27;;;;;;;49.15;31.75;;;3.30;99.90;;;;;;5045138;28;20204;-55
2021/11/28 12:05:57;;;;;;;50.97;32.25;;;3.20;99.90;;;;;;5044485;28;20324;-52
2021/11/28 12:08:27;;;;;;;51.38;32.85;;;3.00;99.90;;;;;;5030927;28;20198;-54
2021/11/28 12:10:59;;;;;;;47.28;33.15;;;2.80;99.90;;;;;;5040108;28;20190;-52
2021/11/28 12:13:27;;;;;;;61.38;37.55;;;2.70;99.90;;;;;;5025281;28;20273;-53
2021/11/28 12:16:15;;;;;;;52.58;35.35;;;2.70;99.90;;;;;;5028342;28;20209;-52
2021/11/28 12:18:45;;;;;;;52.25;34.97;;;2.80;99.90;;;;;;5044771;28;20196;-54
2021/11/28 12:21:14;;;;;;;50.35;31.63;;;3.10;99.90;;;;;;5042497;28;20267;-54
2021/11/28 12:24:05;;;;;;;58.42;35.40;;;3.30;99.90;;;;;;5037399;28;20235;-53
2021/11/28 12:26:33;;;;;;;57.70;35.80;;;3.30;99.90;;;;;;5045819;28;20206;-52
2021/11/28 12:29:16;;;;;;;51.83;34.30;;;3.30;99.90;;;;;;5045263;28;20542;-51
2021/11/28 12:31:49;;;;;;;60.10;36.33;;;3.60;99.90;;;;;;5043051;28;20269;-54
2021/11/28 12:34:25;;;;;;;53.67;32.60;;;3.60;99.90;;;;;;5047273;28;20204;-57
2021/11/28 12:36:58;;;;;;;57.25;35.22;;;3.70;99.90;;;;;;5041171;28;20247;-55
2021/11/28 12:39:25;;;;;;;57.63;34.47;;;3.60;99.90;;;;;;5035292;28;20225;-55
2021/11/28 12:42:21;;;;;;;46.92;28.98;;;3.60;99.90;;;;;;5037679;28;20197;-52
2021/11/28 12:44:51;;;;;;;53.22;33.90;;;3.60;99.90;;;;;;5023285;28;20201;-53
2021/11/28 12:47:24;;;;;;;51.85;32.05;;;3.60;99.90;;;;;;5022208;28;20193;-52
2021/11/28 12:50:31;;;;;;;58.60;34.30;;;3.50;99.90;;;;;;5025008;28;20221;-53
2021/11/28 12:53:04;;;;;;;61.78;35.95;;;3.50;99.90;;;;;;4942045;29;20281;-52
2021/11/28 12:55:31;;;;;;;60.25;36.47;;;3.60;99.90;;;;;;4942534;29;20212;-57
2021/11/28 12:58:03;;;;;;;55.80;33.38;;;3.60;99.90;;;;;;4986016;28;20459;-57